.
WxDataArchive / Data Records for 2007-12-30
2007-12-29 December 2007 2007-12-31

Data Records for Sunday, 30 December 2007

Time	Temp	Chill	HIndex	Humid	Dewpt	 Wind 	HiWind	WindDir	Rain 	Barom 
-----	----	-----	------	-----	-----	------	------	-------	-----	----- 
00:00	27.5	27.5	27.5	77	21.3	0	2	248	0.00	30.125 
00:05	27.5	27.5	27.5	77	21.3	0	2	248	0.00	30.124 
00:10	27.5	27.5	27.5	77	21.3	1	2	248	0.00	30.122 
00:15	27.5	27.5	27.5	77	21.3	1	3	248	0.00	30.117 
00:20	27.5	27.5	27.5	77	21.3	0	3	270	0.00	30.117 
00:25	27.3	27.3	27.3	77	21.1	0	2	270	0.00	30.117 
00:30	27.3	27.3	27.3	77	21.1	0	2	270	0.00	30.116 
00:35	27.3	27.3	27.3	77	21.1	1	4	248	0.00	30.115 
00:40	27.3	27.3	27.3	77	21.1	1	4	248	0.00	30.113 
00:45	27.3	27.3	27.3	77	21.1	0	2	248	0.00	30.107 
00:50	27.3	27.3	27.3	77	21.1	0	3	248	0.00	30.102 
00:55	27.3	27.3	27.3	77	21.1	0	1	248	0.00	30.100 
01:00	27.3	27.3	27.3	77	21.1	0	1	248	0.00	30.100 
01:05	27.2	27.2	27.2	77	21.0	0	2	248	0.00	30.099 
01:10	27.3	27.3	27.3	77	21.1	0	2	248	0.00	30.101 
01:15	27.3	27.3	27.3	77	21.1	0	1	248	0.00	30.099 
01:20	27.3	27.3	27.3	77	21.1	0	1	248	0.00	30.100 
01:25	27.3	27.3	27.3	77	21.1	0	1	248	0.00	30.099 
01:30	27.3	27.3	27.3	77	21.1	0	1	248	0.00	30.096 
01:35	27.3	27.3	27.3	77	21.1	0	1	248	0.00	30.098 
01:40	27.3	27.3	27.3	77	21.1	0	1	248	0.00	30.096 
01:45	27.3	27.3	27.3	77	21.1	0	1	248	0.00	30.092 
01:50	27.3	27.3	27.3	77	21.1	1	3	248	0.00	30.096 
01:55	27.3	27.3	27.3	76	20.8	0	2	248	0.00	30.099 
02:00	27.3	27.3	27.3	76	20.8	0	2	248	0.00	30.100 
02:05	27.5	27.5	27.5	77	21.3	0	1	248	0.00	30.101 
02:10	27.5	27.5	27.5	77	21.3	0	1	248	0.00	30.102 
02:15	27.5	27.5	27.5	76	20.9	0	2	248	0.00	30.105 
02:20	27.5	27.5	27.5	76	20.9	0	2	248	0.00	30.114 
02:25	27.5	27.5	27.5	76	20.9	0	1	248	0.00	30.115 
02:30	27.5	27.5	27.5	77	21.3	0	3	248	0.00	30.117 
02:35	27.5	27.5	27.5	77	21.3	0	2	248	0.00	30.120 
02:40	27.6	27.6	27.6	77	21.4	1	3	45	0.00	30.125 
02:45	27.6	27.6	27.6	76	21.0	0	1	45	0.00	30.126 
02:50	27.6	27.6	27.6	76	21.0	0	2	0	0.00	30.126 
02:55	27.6	27.6	27.6	76	21.0	0	2	315	0.00	30.126 
03:00	27.6	27.6	27.6	76	21.0	0	1	315	0.00	30.123 
03:05	27.6	27.6	27.6	76	21.0	0	0	---	0.00	30.123 
03:10	27.6	27.6	27.6	76	21.0	0	1	315	0.00	30.123 
03:15	27.6	27.6	27.6	76	21.0	0	1	315	0.00	30.123 
03:20	27.6	27.6	27.6	77	21.4	0	0	---	0.00	30.123 
03:25	27.6	27.6	27.6	77	21.4	0	1	315	0.00	30.123 
03:30	27.6	27.6	27.6	77	21.4	0	1	315	0.00	30.119 
03:35	27.6	27.6	27.6	77	21.4	0	1	315	0.00	30.119 
03:40	27.6	27.6	27.6	77	21.4	0	0	---	0.00	30.119 
03:45	27.6	27.6	27.6	76	21.0	0	1	315	0.00	30.116 
03:50	27.8	27.8	27.8	76	21.2	0	0	---	0.00	30.116 
03:55	27.8	27.8	27.8	76	21.2	0	0	---	0.00	30.116 
04:00	27.8	27.8	27.8	76	21.2	0	1	315	0.00	30.112 
04:05	27.8	27.8	27.8	76	21.2	0	1	315	0.00	30.112 
04:10	27.8	27.8	27.8	76	21.2	0	1	315	0.00	30.112 
04:15	27.8	27.8	27.8	76	21.2	0	1	315	0.00	30.105 
04:20	27.8	27.8	27.8	76	21.2	0	0	---	0.00	30.105 
04:25	27.8	27.8	27.8	76	21.2	0	0	---	0.00	30.105 
04:30	27.8	27.8	27.8	76	21.2	0	0	---	0.00	30.100 
04:35	27.8	27.8	27.8	76	21.2	0	0	---	0.00	30.100 
04:40	27.8	27.8	27.8	76	21.2	0	0	---	0.00	30.100 
04:45	27.8	27.8	27.8	76	21.2	0	0	---	0.00	30.098 
04:50	27.8	27.8	27.8	77	21.5	0	0	---	0.00	30.098 
04:55	27.8	27.8	27.8	77	21.5	0	0	---	0.00	30.098 
05:00	27.8	27.8	27.8	77	21.5	0	0	---	0.00	30.091 
05:05	27.8	27.8	27.8	76	21.2	0	0	---	0.00	30.091 
05:10	27.8	27.8	27.8	76	21.2	0	0	---	0.00	30.091 
05:15	27.8	27.8	27.8	76	21.2	0	0	---	0.00	30.084 
05:20	27.8	27.8	27.8	77	21.5	0	0	---	0.00	30.084 
05:25	27.8	27.8	27.8	76	21.2	0	0	---	0.00	30.084 
05:30	27.8	27.8	27.8	77	21.5	0	0	---	0.00	30.075 
05:35	27.8	27.8	27.8	77	21.5	0	0	---	0.00	30.075 
05:40	27.8	27.8	27.8	78	21.8	0	0	---	0.00	30.075 
05:45	27.6	27.6	27.6	77	21.4	0	0	---	0.00	30.082 
05:50	27.6	27.6	27.6	77	21.4	0	0	---	0.00	30.082 
05:55	27.6	27.6	27.6	78	21.7	0	0	---	0.00	30.082 
06:00	27.6	27.6	27.6	79	22.0	0	1	315	0.00	30.076 
06:05	27.6	27.6	27.6	79	22.0	0	1	315	0.00	30.076 
06:10	27.5	27.5	27.5	79	21.9	0	0	---	0.00	30.076 
06:15	27.3	27.3	27.3	80	22.0	0	0	---	0.00	30.077 
06:20	27.3	27.3	27.3	80	22.0	0	1	315	0.00	30.077 
06:25	27.2	27.2	27.2	80	21.9	0	1	315	0.00	30.077 
06:30	27.2	27.2	27.2	80	21.9	0	1	315	0.00	30.070 
06:35	27.0	27.0	27.0	81	22.0	0	1	315	0.00	30.070 
06:40	27.0	27.0	27.0	81	22.0	1	3	45	0.00	30.070 
06:45	26.9	26.9	26.9	81	21.9	0	3	68	0.00	30.063 
06:50	26.9	26.9	26.9	81	21.9	0	2	68	0.00	30.063 
06:55	26.7	26.7	26.7	82	22.0	0	1	68	0.00	30.063 
07:00	26.7	26.7	26.7	82	22.0	0	1	68	0.00	30.057 
07:05	26.7	26.7	26.7	82	22.0	0	2	68	0.00	30.057 
07:10	26.7	26.7	26.7	83	22.2	0	1	68	0.00	30.057 
07:15	26.6	26.6	26.6	83	22.1	0	2	68	0.00	30.052 
07:20	26.6	26.6	26.6	83	22.1	1	3	90	0.00	30.052 
07:25	26.6	26.6	26.6	83	22.1	0	1	90	0.00	30.052 
07:30	26.6	26.6	26.6	83	22.1	0	2	90	0.00	30.053 
07:35	26.6	26.6	26.6	83	22.1	0	2	90	0.00	30.053 
07:40	26.6	26.6	26.6	83	22.1	0	3	90	0.00	30.053 
07:45	26.6	26.6	26.6	83	22.1	0	2	90	0.00	30.056 
07:50	26.6	26.6	26.6	83	22.1	1	3	90	0.00	30.056 
07:55	26.6	26.6	26.6	83	22.1	0	2	90	0.00	30.056 
08:00	26.6	26.6	26.6	83	22.1	0	3	90	0.00	30.052 
08:05	26.6	26.6	26.6	83	22.1	0	1	90	0.00	30.052 
08:10	26.6	26.6	26.6	83	22.1	1	3	90	0.00	30.052 
08:15	26.6	26.6	26.6	83	22.1	1	3	90	0.00	30.060 
08:20	26.6	26.6	26.6	82	21.9	1	3	112	0.00	30.060 
08:25	26.6	26.6	26.6	82	21.9	1	3	90	0.00	30.060 
08:30	26.6	26.6	26.6	82	21.9	2	4	112	0.00	30.056 
08:35	26.7	26.7	26.7	82	22.0	2	4	112	0.00	30.056 
08:40	26.7	26.7	26.7	82	22.0	2	5	112	0.00	30.056 
08:45	26.7	26.7	26.7	83	22.2	2	6	90	0.00	30.048 
08:50	26.7	26.7	26.7	83	22.2	3	6	90	0.00	30.048 
08:55	26.9	26.9	26.9	83	22.4	3	7	90	0.00	30.048 
09:00	26.9	26.9	26.9	83	22.4	2	5	112	0.00	30.054 
09:05	27.0	27.0	27.0	83	22.5	2	5	90	0.00	30.054 
09:10	27.0	27.0	27.0	83	22.5	1	4	90	0.00	30.054 
09:15	27.2	27.2	27.2	82	22.4	2	5	90	0.00	30.046 
09:20	27.2	27.2	27.2	82	22.4	2	4	112	0.00	30.046 
09:25	27.2	27.2	27.2	82	22.4	2	5	112	0.00	30.046 
09:30	27.3	27.3	27.3	82	22.5	3	6	112	0.00	30.054 
09:35	27.3	27.3	27.3	81	22.3	3	7	90	0.00	30.054 
09:40	27.5	27.5	27.5	82	22.7	3	5	112	0.00	30.054 
09:45	27.5	27.5	27.5	82	22.7	3	7	90	0.00	30.050 
09:50	27.5	27.5	27.5	82	22.7	3	6	90	0.00	30.050 
09:55	27.6	27.6	27.6	82	22.8	2	5	90	0.00	30.050 
10:00	27.6	27.6	27.6	83	23.1	2	4	90	0.00	30.059 
10:05	27.8	27.8	27.8	82	23.0	3	7	90	0.00	30.059 
10:10	27.8	27.8	27.8	82	23.0	3	7	112	0.00	30.059 
10:15	27.8	27.8	27.8	82	23.0	2	4	112	0.00	30.066 
10:20	27.9	27.9	27.9	82	23.1	2	5	90	0.00	30.066 
10:25	28.1	28.1	28.1	82	23.3	2	5	112	0.00	30.066 
10:30	28.2	28.2	28.2	82	23.4	1	4	112	0.00	30.067 
10:35	28.4	28.4	28.4	82	23.6	2	5	112	0.00	30.067 
10:40	28.4	28.4	28.4	82	23.6	2	5	112	0.00	30.067 
10:45	28.5	28.5	28.5	82	23.7	2	5	90	0.00	30.067 
10:50	28.5	28.5	28.5	82	23.7	3	5	112	0.00	30.067 
10:55	28.5	28.5	28.5	82	23.7	3	5	112	0.00	30.067 
11:00	28.7	28.7	28.7	82	23.9	2	5	112	0.00	30.058 
11:05	28.8	28.8	28.8	82	24.0	2	4	90	0.00	30.058 
11:10	29.0	29.0	29.0	81	23.9	3	6	90	0.00	30.058 
11:15	29.0	29.0	29.0	81	23.9	3	7	112	0.00	30.052 
11:20	29.0	29.0	29.0	81	23.9	2	4	112	0.00	30.052 
11:25	29.1	29.1	29.1	81	24.0	3	5	90	0.00	30.052 
11:30	29.3	29.3	29.3	81	24.2	2	4	112	0.00	30.043 
11:35	29.4	29.4	29.4	81	24.3	3	6	90	0.00	30.043 
11:40	29.4	29.4	29.4	81	24.3	2	6	90	0.00	30.043 
11:45	29.5	29.5	29.5	80	24.1	2	4	112	0.00	30.021 
11:50	29.7	29.7	29.7	80	24.3	2	6	90	0.00	30.021 
11:55	29.7	29.7	29.7	80	24.3	3	5	112	0.00	30.021 
12:00	29.8	29.8	29.8	80	24.4	1	3	112	0.00	30.011 
12:05	30.0	30.0	30.0	79	24.3	2	5	112	0.00	30.011 
12:10	29.8	29.8	29.8	79	24.1	2	5	112	0.00	30.011 
12:15	30.0	30.0	30.0	80	24.6	2	5	112	0.00	29.995 
12:20	29.8	29.8	29.8	80	24.4	3	6	112	0.00	29.995 
12:25	29.8	29.8	29.8	79	24.1	2	5	112	0.00	29.995 
12:30	29.8	29.8	29.8	80	24.4	3	6	112	0.00	29.982 
12:35	29.8	29.8	29.8	80	24.4	2	6	112	0.00	29.982 
12:40	29.8	29.8	29.8	80	24.4	3	6	112	0.00	29.982 
12:45	29.8	29.8	29.8	80	24.4	2	5	112	0.00	29.974 
12:50	29.8	29.8	29.8	80	24.4	2	5	135	0.00	29.974 
12:55	29.8	29.8	29.8	80	24.4	2	6	90	0.00	29.974 
13:00	29.8	29.8	29.8	79	24.1	3	6	90	0.00	29.960 
13:05	29.8	29.8	29.8	80	24.4	3	7	90	0.00	29.960 
13:10	29.8	29.8	29.8	80	24.4	1	5	112	0.00	29.960 
13:15	30.0	30.0	30.0	80	24.6	2	5	90	0.00	29.951 
13:20	30.0	30.0	30.0	80	24.6	2	4	90	0.00	29.951 
13:25	30.0	30.0	30.0	79	24.3	2	6	112	0.00	29.951 
13:30	30.0	30.0	30.0	80	24.6	2	4	112	0.00	29.947 
13:35	30.0	30.0	30.0	80	24.6	2	6	112	0.00	29.941 
13:40	30.1	30.1	30.1	79	24.4	3	7	90	0.00	29.938 
13:45	30.1	30.1	30.1	78	24.1	1	5	112	0.00	29.932 
13:50	30.1	30.1	30.1	77	23.8	2	5	112	0.00	29.933 
13:55	30.1	30.1	30.1	78	24.1	2	6	90	0.00	29.929 
14:00	30.1	30.1	30.1	78	24.1	2	5	112	0.00	29.925 
14:05	30.3	30.3	30.3	78	24.3	2	6	112	0.00	29.921 
14:10	30.3	30.3	30.3	77	24.0	2	6	112	0.00	29.919 
14:15	30.3	30.3	30.3	78	24.3	2	4	112	0.00	29.918 
14:20	30.3	30.3	30.3	78	24.3	2	5	112	0.00	29.914 
14:25	30.3	30.3	30.3	78	24.3	1	4	112	0.00	29.910 
14:30	30.4	30.4	30.4	77	24.1	2	4	90	0.00	29.907 
14:35	30.4	30.4	30.4	77	24.1	2	5	90	0.00	29.907 
14:40	30.4	30.4	30.4	77	24.1	2	4	112	0.00	29.909 
14:45	30.4	30.4	30.4	77	24.1	2	6	112	0.00	29.906 
14:50	30.6	30.6	30.6	77	24.3	1	4	90	0.00	29.904 
14:55	30.6	30.6	30.6	77	24.3	1	3	90	0.00	29.900 
15:00	30.6	30.6	30.6	76	24.0	2	4	90	0.00	29.906 
15:05	30.6	30.6	30.6	77	24.3	0	2	90	0.00	29.904 
15:10	30.6	30.6	30.6	77	24.3	1	4	112	0.00	29.902 
15:15	30.6	30.6	30.6	77	24.3	0	2	112	0.00	29.900 
15:20	30.7	30.7	30.7	77	24.4	1	3	112	0.00	29.896 
15:25	30.7	30.7	30.7	77	24.4	2	4	112	0.00	29.893 
15:30	30.6	30.6	30.6	77	24.3	2	3	90	0.00	29.890 
15:35	30.6	30.6	30.6	77	24.3	2	4	90	0.00	29.892 
15:40	30.6	30.6	30.6	77	24.3	2	5	112	0.00	29.890 
15:45	30.6	30.6	30.6	77	24.3	2	5	112	0.00	29.887 
15:50	30.6	30.6	30.6	78	24.6	2	4	90	0.00	29.880 
15:55	30.4	30.4	30.4	78	24.4	3	7	90	0.00	29.878 
16:00	30.6	30.6	30.6	78	24.6	2	4	90	0.00	29.874 
16:05	30.6	30.6	30.6	78	24.6	3	5	90	0.00	29.873 
16:10	30.4	30.4	30.4	78	24.4	2	5	90	0.00	29.876 
16:15	30.6	30.6	30.6	78	24.6	2	5	112	0.00	29.872 
16:20	30.4	30.4	30.4	78	24.4	3	7	112	0.00	29.867 
16:25	30.4	30.4	30.4	79	24.7	3	5	112	0.00	29.863 
16:30	30.4	30.4	30.4	79	24.7	3	6	90	0.00	29.863 
16:35	30.3	30.3	30.3	80	24.9	3	6	112	0.00	29.862 
16:40	30.3	30.3	30.3	80	24.9	3	6	112	0.00	29.861 
16:45	30.1	30.1	30.1	80	24.7	2	5	112	0.00	29.861 
16:50	30.0	25.8	30.0	81	24.9	4	9	90	0.00	29.858 
16:55	30.0	30.0	30.0	81	24.9	3	6	90	0.00	29.850 
17:00	30.0	30.0	30.0	81	24.9	3	6	112	0.00	29.848 
17:05	30.0	30.0	30.0	81	24.9	2	4	112	0.00	29.846 
17:10	29.8	29.8	29.8	81	24.7	2	4	112	0.00	29.846 
17:15	29.7	29.7	29.7	82	24.9	3	7	90	0.00	29.846 
17:20	29.5	29.5	29.5	82	24.7	2	4	90	0.00	29.847 
17:25	29.5	29.5	29.5	83	25.0	2	4	112	0.00	29.851 
17:30	29.5	29.5	29.5	82	24.7	2	3	90	0.00	29.853 
17:35	29.5	29.5	29.5	83	25.0	1	5	68	0.00	29.855 
17:40	29.5	29.5	29.5	83	25.0	1	3	112	0.00	29.850 
17:45	29.5	29.5	29.5	83	25.0	1	2	90	0.00	29.851 
17:50	29.5	29.5	29.5	83	25.0	0	1	90	0.00	29.852 
17:55	29.5	29.5	29.5	83	25.0	1	3	90	0.00	29.851 
18:00	29.5	29.5	29.5	83	25.0	1	4	90	0.00	29.858 
18:05	29.5	29.5	29.5	83	25.0	2	4	90	0.00	29.861 
18:10	29.7	29.7	29.7	83	25.2	0	2	135	0.00	29.861 
18:15	29.7	29.7	29.7	83	25.2	1	3	135	0.00	29.862 
18:20	29.7	29.7	29.7	83	25.2	0	2	135	0.00	29.863 
18:25	29.7	29.7	29.7	84	25.5	0	1	135	0.00	29.861 
18:30	29.7	29.7	29.7	83	25.2	1	2	135	0.00	29.862 
18:35	29.7	29.7	29.7	84	25.5	0	2	135	0.00	29.862 
18:40	29.7	29.7	29.7	83	25.2	1	2	135	0.00	29.862 
18:45	29.7	29.7	29.7	83	25.2	1	4	135	0.00	29.859 
18:50	29.7	29.7	29.7	84	25.5	1	2	112	0.00	29.860 
18:55	29.5	29.5	29.5	84	25.3	1	4	112	0.00	29.851 
19:00	29.5	29.5	29.5	84	25.3	1	4	112	0.00	29.850 
19:05	29.5	29.5	29.5	84	25.3	1	4	112	0.00	29.850 
19:10	29.5	29.5	29.5	84	25.3	1	3	112	0.00	29.851 
19:15	29.5	29.5	29.5	84	25.3	0	1	112	0.00	29.854 
19:20	29.5	29.5	29.5	84	25.3	1	2	112	0.00	29.853 
19:25	29.5	29.5	29.5	85	25.6	0	2	112	0.00	29.857 
19:30	29.5	29.5	29.5	85	25.6	1	3	112	0.00	29.854 
19:35	29.5	29.5	29.5	85	25.6	0	2	112	0.00	29.860 
19:40	29.5	29.5	29.5	85	25.6	0	2	112	0.00	29.861 
19:45	29.5	29.5	29.5	85	25.6	0	2	112	0.00	29.858 
19:50	29.5	29.5	29.5	85	25.6	0	2	112	0.00	29.857 
19:55	29.5	29.5	29.5	85	25.6	1	2	112	0.00	29.851 
20:00	29.5	29.5	29.5	85	25.6	0	2	112	0.00	29.857 
20:05	29.5	29.5	29.5	85	25.6	0	2	112	0.00	29.855 
20:10	29.5	29.5	29.5	85	25.6	0	1	112	0.00	29.862 
20:15	29.5	29.5	29.5	85	25.6	0	1	112	0.00	29.863 
20:20	29.5	29.5	29.5	85	25.6	0	1	112	0.00	29.864 
20:25	29.5	29.5	29.5	85	25.6	0	1	112	0.00	29.866 
20:30	29.5	29.5	29.5	85	25.6	0	1	112	0.00	29.863 
20:35	29.5	29.5	29.5	85	25.6	0	1	112	0.00	29.863 
20:40	29.5	29.5	29.5	85	25.6	0	1	112	0.00	29.862 
20:45	29.7	29.7	29.7	86	26.0	0	2	112	0.00	29.858 
20:50	29.5	29.5	29.5	86	25.8	1	2	112	0.00	29.857 
20:55	29.5	29.5	29.5	86	25.8	0	2	112	0.00	29.859 
21:00	29.5	29.5	29.5	86	25.8	0	1	112	0.00	29.860 
21:05	29.5	29.5	29.5	86	25.8	1	2	112	0.00	29.857 
21:10	29.5	29.5	29.5	86	25.8	0	2	112	0.00	29.859 
21:15	29.5	29.5	29.5	86	25.8	0	2	112	0.00	29.861 
21:20	29.5	29.5	29.5	86	25.8	0	1	112	0.00	29.861 
21:25	29.5	29.5	29.5	86	25.8	0	1	112	0.00	29.861 
21:30	29.5	29.5	29.5	86	25.8	0	1	112	0.00	29.861 
21:35	29.5	29.5	29.5	86	25.8	0	0	---	0.00	29.861 
21:40	29.5	29.5	29.5	86	25.8	0	1	112	0.00	29.860 
21:45	29.5	29.5	29.5	86	25.8	0	1	112	0.00	29.861 
21:50	29.5	29.5	29.5	86	25.8	0	2	112	0.00	29.860 
21:55	29.5	29.5	29.5	87	26.1	0	1	112	0.00	29.859 
22:00	29.5	29.5	29.5	87	26.1	0	1	112	0.00	29.859 
22:05	29.5	29.5	29.5	87	26.1	0	2	112	0.00	29.860 
22:10	29.5	29.5	29.5	87	26.1	0	1	112	0.00	29.859 
22:15	29.5	29.5	29.5	87	26.1	0	1	112	0.00	29.855 
22:20	29.5	29.5	29.5	87	26.1	0	2	112	0.00	29.854 
22:25	29.5	29.5	29.5	87	26.1	0	2	112	0.00	29.854 
22:30	29.5	29.5	29.5	87	26.1	0	1	112	0.00	29.853 
22:35	29.5	29.5	29.5	87	26.1	0	1	112	0.00	29.852 
22:40	29.5	29.5	29.5	88	26.4	0	1	112	0.00	29.854 
22:45	29.4	29.4	29.4	88	26.3	0	1	112	0.00	29.852 
22:50	29.4	29.4	29.4	88	26.3	0	0	---	0.00	29.855 
22:55	29.3	29.3	29.3	89	26.5	0	0	---	0.00	29.858 
23:00	29.3	29.3	29.3	89	26.5	0	0	---	0.00	29.858 
23:05	29.3	29.3	29.3	89	26.5	0	0	---	0.00	29.857 
23:10	29.1	29.1	29.1	89	26.3	0	0	---	0.00	29.854 
23:15	29.0	29.0	29.0	89	26.2	0	0	---	0.00	29.859 
23:20	28.8	28.8	28.8	89	26.0	0	0	---	0.00	29.861 
23:25	28.7	28.7	28.7	89	25.9	0	0	---	0.00	29.861 
23:30	28.5	28.5	28.5	90	25.9	0	0	---	0.00	29.859 
23:35	28.5	28.5	28.5	90	25.9	0	0	---	0.00	29.858 
23:40	28.5	28.5	28.5	91	26.2	0	0	---	0.00	29.855 
23:45	28.5	28.5	28.5	91	26.2	0	0	---	0.00	29.857 
23:50	28.7	28.7	28.7	91	26.4	0	1	112	0.00	29.857 
23:55	28.7	28.7	28.7	91	26.4	0	0	---	0.00	29.859 

CoCoRaHS
IN-AL-39
A2 Web Hosting
Creative Commons License
GoDaddy
Look for:

loaded 2017-12-11 06:39:05 • last modified 2010-11-18 10:43:29
Privacy PolicyDisclaimer
• wx.awcolley.com is powered by PmWiki v.2002016 •
• all content (unless otherwise noted) © 2017 A W Colley